Turks and Caicos Islands Weather

[source: ADDS]
METAR
MBPV 211000Z 2112/2212 09014KT 9999 SCT020 SCT035 BKN220 PROB30 TEMPO 2115/2121 09018KT 8000 -SHRA BKN018 BKN030 MBGT 211000Z 2112/2212 09014KT 9999 SCT020 SCT035 BKN220 PROB30 TEMPO 2115/2121 09018KT 8000 -SHRA BKN018 BKN030 TAF
MBPV 211000Z 2112/2212 09014KT 9999 SCT020 SCT035 BKN220 PROB30 TEMPO 2115/2121 09018KT 8000 -SHRA BKN018 BKN030 =
MBGT 211000Z 2112/2212 09014KT 9999 SCT020 SCT035 BKN220 PROB30 TEMPO 2115/2121 09018KT 8000 -SHRA BKN018 BKN030 =
SR / SS: 11:23 / 22:11 UTC (MBPV 2014-12-21)
E-mail Print PDF
Weather